createdAt,value
2019-03-16T00:00:27.731Z,-0.8
2019-03-16T00:01:17.769Z,-0.8
2019-03-16T00:02:07.554Z,-0.9
2019-03-16T00:02:57.893Z,-0.9
2019-03-16T00:03:47.663Z,-0.9
2019-03-16T00:04:37.736Z,-0.9
2019-03-16T00:07:58.046Z,-1
2019-03-16T00:08:48.305Z,-1
2019-03-16T00:09:38.371Z,-1
2019-03-16T00:10:28.428Z,-1
2019-03-16T00:11:18.493Z,-1.1
2019-03-16T00:12:08.547Z,-1.1
2019-03-16T00:12:58.594Z,-1.1
2019-03-16T00:13:48.386Z,-1.1
2019-03-16T00:14:38.170Z,-1.1
2019-03-16T00:15:28.512Z,-1.1
2019-03-16T00:16:18.555Z,-1.1
2019-03-16T00:17:08.904Z,-1.2
2019-03-16T00:17:58.404Z,-1.2
2019-03-16T00:18:48.458Z,-1.2
2019-03-16T00:19:39.068Z,-1.3
2019-03-16T00:20:29.135Z,-1.3
2019-03-16T00:21:18.915Z,-1.3
2019-03-16T00:22:09.002Z,-1.3
2019-03-16T00:22:59.455Z,-1.3
2019-03-16T00:23:49.108Z,-1.3
2019-03-16T00:24:39.145Z,-1.3
2019-03-16T00:25:29.548Z,-1.3
2019-03-16T00:26:19.561Z,-1.4
2019-03-16T00:27:09.337Z,-1.4
2019-03-16T00:27:59.380Z,-1.4
2019-03-16T00:28:49.462Z,-1.4
2019-03-16T00:29:39.790Z,-1.4
2019-03-16T00:30:29.367Z,-1.4
2019-03-16T00:31:19.632Z,-1.4
2019-03-16T00:32:15.194Z,-1.4
2019-03-16T00:32:59.280Z,-1.5
2019-03-16T00:33:49.595Z,-1.5
2019-03-16T00:34:39.387Z,-1.5
2019-03-16T00:35:29.445Z,-1.5
2019-03-16T00:36:20.250Z,-1.5
2019-03-16T00:37:10.319Z,-1.5
2019-03-16T00:38:00.371Z,-1.5
2019-03-16T00:38:50.431Z,-1.5
2019-03-16T00:39:40.488Z,-1.5
2019-03-16T00:40:30.267Z,-1.5
2019-03-16T00:41:20.329Z,-1.4
2019-03-16T00:42:10.381Z,-1.5
2019-03-16T00:43:00.724Z,-1.5
2019-03-16T00:43:50.781Z,-1.5
2019-03-16T00:44:40.568Z,-1.5
2019-03-16T00:45:30.627Z,-1.5
2019-03-16T00:46:20.706Z,-1.6
2019-03-16T00:47:10.743Z,-1.6
2019-03-16T00:48:01.094Z,-1.6
2019-03-16T00:48:51.141Z,-1.6
2019-03-16T00:49:41.198Z,-1.6
2019-03-16T00:50:30.984Z,-1.6
2019-03-16T00:51:21.311Z,-1.6
2019-03-16T00:52:11.096Z,-1.6
2019-03-16T00:53:01.148Z,-1.6
2019-03-16T00:53:51.221Z,-1.6
2019-03-16T00:54:41.276Z,-1.6
2019-03-16T00:55:31.331Z,-1.7
2019-03-16T00:56:21.668Z,-1.7
2019-03-16T00:57:11.460Z,-1.7
2019-03-16T00:58:01.515Z,-1.7
2019-03-16T00:58:51.580Z,-1.8
2019-03-16T00:59:41.959Z,-1.8
2019-03-16T01:00:31.968Z,-1.8
2019-03-16T01:01:22.018Z,-1.8
2019-03-16T01:02:11.795Z,-1.8
2019-03-16T01:03:01.873Z,-1.8
2019-03-16T01:03:52.199Z,-1.8
2019-03-16T01:04:41.993Z,-1.8
2019-03-16T01:05:32.327Z,-1.8
2019-03-16T01:06:21.844Z,-1.8
2019-03-16T01:07:11.879Z,-1.8
2019-03-16T01:08:02.236Z,-1.8
2019-03-16T01:08:52.010Z,-1.8
2019-03-16T01:09:45.420Z,-1.7
2019-03-16T01:10:32.393Z,-1.7
2019-03-16T01:11:22.740Z,-1.7
2019-03-16T01:12:12.510Z,-1.7
2019-03-16T01:13:02.320Z,-1.7
2019-03-16T01:13:52.632Z,-1.6
2019-03-16T01:14:42.978Z,-1.6
2019-03-16T01:15:32.747Z,-1.6
2019-03-16T01:16:22.830Z,-1.6
2019-03-16T01:17:13.142Z,-1.6
2019-03-16T01:18:02.929Z,-1.5
2019-03-16T01:18:52.984Z,-1.5
2019-03-16T01:19:43.044Z,-1.5
2019-03-16T01:20:33.099Z,-1.4
2019-03-16T01:21:23.484Z,-1.4
2019-03-16T01:22:13.235Z,-1.4
2019-03-16T01:23:03.291Z,-1.4
2019-03-16T01:23:53.626Z,-1.4
2019-03-16T01:24:43.676Z,-1.4
2019-03-16T01:25:33.737Z,-1.4
2019-03-16T01:26:23.343Z,-1.3
2019-03-16T01:27:13.854Z,-1.3
2019-03-16T01:28:03.921Z,-1.3
2019-03-16T01:28:53.717Z,-1.3
2019-03-16T01:29:44.038Z,-1.3
2019-03-16T01:30:33.544Z,-1.3
2019-03-16T01:31:24.166Z,-1.2
2019-03-16T01:32:13.936Z,-1.2
2019-03-16T01:33:04.281Z,-1.1
2019-03-16T01:33:54.334Z,-1.1
2019-03-16T01:34:45.934Z,-1.1
2019-03-16T01:35:34.466Z,-1.1
2019-03-16T01:36:24.516Z,-1.1
2019-03-16T01:37:14.005Z,-1.1
2019-03-16T01:38:04.356Z,-1.1
2019-03-16T01:38:54.407Z,-1
2019-03-16T01:39:44.761Z,-1
2019-03-16T01:43:54.198Z,-0.9
2019-03-16T01:44:45.108Z,-0.9
2019-03-16T01:45:34.884Z,-0.8
2019-03-16T01:46:24.935Z,-0.8
2019-03-16T01:47:15.005Z,-0.8
2019-03-16T01:48:05.058Z,-0.8
2019-03-16T01:48:55.115Z,-0.8
2019-03-16T01:49:45.455Z,-0.7
2019-03-16T01:50:35.598Z,-0.7
2019-03-16T01:51:25.300Z,-0.6
2019-03-16T01:52:15.363Z,-0.6
2019-03-16T01:53:05.407Z,-0.6
2019-03-16T01:53:55.210Z,-0.6
2019-03-16T01:54:45.527Z,-0.6
2019-03-16T01:55:35.862Z,-0.6
2019-03-16T01:56:25.915Z,-0.5
2019-03-16T01:57:15.804Z,-0.5
2019-03-16T01:58:06.050Z,-0.5
2019-03-16T01:58:56.107Z,-0.4
2019-03-16T01:59:45.892Z,-0.4
2019-03-16T02:00:36.217Z,-0.4
2019-03-16T02:01:26.274Z,-0.4
2019-03-16T02:02:15.789Z,-0.4
2019-03-16T02:03:06.118Z,-0.4
2019-03-16T02:03:56.177Z,-0.4
2019-03-16T02:04:46.307Z,-0.4
2019-03-16T02:05:36.012Z,-0.4
2019-03-16T02:06:26.625Z,-0.3
2019-03-16T02:07:16.694Z,-0.3
2019-03-16T02:08:06.761Z,-0.3
2019-03-16T02:08:56.814Z,-0.3
2019-03-16T02:09:46.089Z,-0.3
2019-03-16T02:10:36.652Z,-0.3
2019-03-16T02:11:26.979Z,-0.2
2019-03-16T02:12:16.489Z,-0.2
2019-03-16T02:13:06.824Z,-0.1
2019-03-16T02:13:56.894Z,-0.1
2019-03-16T02:14:47.236Z,-0.1
2019-03-16T02:15:37.016Z,-0.1
2019-03-16T02:16:27.353Z,0
2019-03-16T02:17:17.119Z,0
2019-03-16T02:18:06.906Z,0
2019-03-16T02:18:57.239Z,0.1
2019-03-16T02:19:47.567Z,0.1
2019-03-16T02:20:37.359Z,0.1
2019-03-16T02:21:27.710Z,0.1
2019-03-16T02:22:17.478Z,0.1
2019-03-16T02:23:07.539Z,0.2
2019-03-16T02:23:57.312Z,0.2
2019-03-16T02:24:47.973Z,0.2
2019-03-16T02:25:37.774Z,0.2
2019-03-16T02:26:28.045Z,0.3
2019-03-16T02:27:18.100Z,0.3
2019-03-16T02:28:08.163Z,0.3
2019-03-16T02:28:58.225Z,0.3
2019-03-16T02:29:47.998Z,0.4
2019-03-16T02:30:38.090Z,0.4
2019-03-16T02:31:28.414Z,0.4
2019-03-16T02:32:17.917Z,0.4
2019-03-16T02:33:15.624Z,0.4
2019-03-16T02:33:58.312Z,0.4
2019-03-16T02:34:48.653Z,0.4
2019-03-16T02:35:38.451Z,0.5
2019-03-16T02:36:28.226Z,0.5
2019-03-16T02:37:18.853Z,0.5
2019-03-16T02:38:08.881Z,0.5
2019-03-16T02:38:58.675Z,0.6
2019-03-16T02:39:48.183Z,0.6
2019-03-16T02:40:39.064Z,0.6
2019-03-16T02:41:28.889Z,0.6
2019-03-16T02:42:19.313Z,0.6
2019-03-16T02:43:08.977Z,0.6
2019-03-16T02:43:59.030Z,0.6
2019-03-16T02:44:49.385Z,0.7
2019-03-16T02:45:39.127Z,0.6
2019-03-16T02:46:29.486Z,0.7
2019-03-16T02:47:19.065Z,0.7
2019-03-16T02:48:09.112Z,0.8
2019-03-16T02:48:58.896Z,0.7
2019-03-16T02:49:49.749Z,0.7
2019-03-16T02:50:39.795Z,0.8
2019-03-16T02:51:29.554Z,0.8
2019-03-16T02:52:19.905Z,0.8
2019-03-16T02:53:09.869Z,0.8
2019-03-16T02:53:59.765Z,0.8
2019-03-16T02:54:50.085Z,0.8
2019-03-16T02:55:39.844Z,0.8
2019-03-16T02:56:30.197Z,0.9
2019-03-16T02:57:20.239Z,0.9
2019-03-16T02:58:10.039Z,0.9
2019-03-16T02:59:00.432Z,0.9
2019-03-16T02:59:50.277Z,0.9
2019-03-16T03:00:40.481Z,0.9
2019-03-16T03:01:30.552Z,0.9
2019-03-16T03:02:20.666Z,0.9
2019-03-16T03:03:10.667Z,0.9
2019-03-16T03:04:00.301Z,1
2019-03-16T03:07:32.359Z,1
2019-03-16T03:08:22.138Z,1
2019-03-16T03:09:12.178Z,1
2019-03-16T03:10:02.653Z,1
2019-03-16T03:10:52.603Z,1
2019-03-16T03:11:42.628Z,1
2019-03-16T03:12:32.716Z,1.1
2019-03-16T03:13:22.521Z,1.1
2019-03-16T03:14:13.020Z,1.1
2019-03-16T03:15:02.878Z,1.1
2019-03-16T03:15:52.926Z,1.1
2019-03-16T03:16:42.996Z,1.1
2019-03-16T03:17:33.076Z,1.1
2019-03-16T03:18:22.815Z,1.1
2019-03-16T03:19:12.940Z,1.2
2019-03-16T03:20:02.994Z,1.2
2019-03-16T03:20:53.173Z,1.2
2019-03-16T03:21:43.349Z,1.2
2019-03-16T03:22:33.392Z,1.3
2019-03-16T03:23:23.460Z,1.3
2019-03-16T03:24:13.253Z,1.3
2019-03-16T03:25:03.580Z,1.3
2019-03-16T03:25:53.751Z,1.3
2019-03-16T03:26:43.826Z,1.3
2019-03-16T03:27:33.495Z,1.3
2019-03-16T03:28:23.814Z,1.4
2019-03-16T03:29:13.850Z,1.4
2019-03-16T03:30:04.068Z,1.4
2019-03-16T03:30:54.024Z,1.4
2019-03-16T03:31:43.806Z,1.4
2019-03-16T03:32:34.166Z,1.4
2019-03-16T03:33:23.969Z,1.4
2019-03-16T03:34:14.261Z,1.4
2019-03-16T03:35:04.509Z,1.4
2019-03-16T03:35:54.054Z,1.4
2019-03-16T03:36:44.407Z,1.4
2019-03-16T03:37:34.458Z,1.4
2019-03-16T03:38:24.239Z,1.4
2019-03-16T03:39:14.290Z,1.4
2019-03-16T03:40:04.639Z,1.4
2019-03-16T03:40:54.694Z,1.4
2019-03-16T03:41:44.809Z,1.4
2019-03-16T03:42:34.864Z,1.4
2019-03-16T03:43:24.612Z,1.4
2019-03-16T03:44:14.992Z,1.4
2019-03-16T03:45:04.483Z,1.4
2019-03-16T03:45:55.053Z,1.4
2019-03-16T03:46:45.112Z,1.4
2019-03-16T03:47:35.177Z,1.4
2019-03-16T03:48:24.954Z,1.4
2019-03-16T03:49:14.984Z,1.4
2019-03-16T03:50:05.062Z,1.4
2019-03-16T03:50:55.413Z,1.3
2019-03-16T03:51:45.180Z,1.3
2019-03-16T03:52:34.975Z,1.3
2019-03-16T03:53:25.291Z,1.3
2019-03-16T03:54:15.636Z,1.3
2019-03-16T03:55:05.458Z,1.2
2019-03-16T03:55:55.758Z,1.2
2019-03-16T03:56:45.819Z,1.1
2019-03-16T03:57:35.900Z,1.1
2019-03-16T03:58:25.678Z,1.1
2019-03-16T03:59:15.994Z,1.1
2019-03-16T04:00:05.803Z,1.1
2019-03-16T04:00:56.143Z,1
2019-03-16T04:01:46.140Z,1
2019-03-16T04:02:36.231Z,0.9
2019-03-16T04:03:26.035Z,0.9
2019-03-16T04:04:18.142Z,0.9
2019-03-16T04:05:06.396Z,0.9
2019-03-16T04:05:55.893Z,0.8
2019-03-16T04:06:46.257Z,0.9
2019-03-16T04:07:36.552Z,0.8
2019-03-16T04:08:26.332Z,0.9
2019-03-16T04:09:16.737Z,0.8
2019-03-16T04:10:06.808Z,0.8
2019-03-16T04:10:56.803Z,0.8
2019-03-16T04:11:46.904Z,0.8
2019-03-16T04:12:36.965Z,0.8
2019-03-16T04:13:26.401Z,0.8
2019-03-16T04:14:16.514Z,0.8
2019-03-16T04:15:06.835Z,0.8
2019-03-16T04:15:56.919Z,0.8
2019-03-16T04:16:47.212Z,0.8
2019-03-16T04:17:37.017Z,0.8
2019-03-16T04:18:27.323Z,0.8
2019-03-16T04:19:17.407Z,0.8
2019-03-16T04:20:07.449Z,0.8
2019-03-16T04:20:57.235Z,0.8
2019-03-16T04:21:47.678Z,0.7
2019-03-16T04:22:37.644Z,0.7
2019-03-16T04:23:27.677Z,0.7
2019-03-16T04:24:17.728Z,0.7
2019-03-16T04:25:07.868Z,0.7
2019-03-16T04:25:57.850Z,0.6
2019-03-16T04:26:47.630Z,0.6
2019-03-16T04:27:37.967Z,0.6
2019-03-16T04:28:27.757Z,0.5
2019-03-16T04:29:17.806Z,0.5
2019-03-16T04:30:07.859Z,0.4
2019-03-16T04:30:58.287Z,0.4
2019-03-16T04:31:48.354Z,0.4
2019-03-16T04:32:38.042Z,0.3
2019-03-16T04:33:28.364Z,0.3
2019-03-16T04:34:31.579Z,0.3
2019-03-16T04:35:08.501Z,0.3
2019-03-16T04:35:58.547Z,0.2
2019-03-16T04:36:48.592Z,0.2
2019-03-16T04:37:38.830Z,0.1
2019-03-16T04:38:28.454Z,0.1
2019-03-16T04:39:18.859Z,0.1
2019-03-16T04:40:08.850Z,0.1
2019-03-16T04:40:58.877Z,0
2019-03-16T04:41:48.420Z,0
2019-03-16T04:42:39.011Z,-0.1
2019-03-16T04:43:28.509Z,-0.1
2019-03-16T04:44:19.135Z,-0.1
2019-03-16T04:45:09.177Z,-0.1
2019-03-16T04:45:59.233Z,-0.1
2019-03-16T04:46:49.300Z,-0.2
2019-03-16T04:47:39.373Z,-0.2
2019-03-16T04:48:29.419Z,-0.2
2019-03-16T04:49:18.933Z,-0.3
2019-03-16T04:50:09.534Z,-0.3
2019-03-16T04:50:59.321Z,-0.3
2019-03-16T04:51:49.654Z,-0.3
2019-03-16T04:52:39.709Z,-0.3
2019-03-16T04:53:29.770Z,-0.3
2019-03-16T04:54:19.825Z,-0.3
2019-03-16T04:55:09.694Z,-0.4
2019-03-16T04:55:59.936Z,-0.4
2019-03-16T04:56:50.016Z,-0.4
2019-03-16T04:57:39.802Z,-0.4
2019-03-16T04:58:29.941Z,-0.4
2019-03-16T04:59:20.182Z,-0.4
2019-03-16T05:00:10.244Z,-0.4
2019-03-16T05:01:00.406Z,-0.4
2019-03-16T05:01:50.082Z,-0.4
2019-03-16T05:02:40.433Z,-0.4
2019-03-16T05:03:30.551Z,-0.4
2019-03-16T05:04:20.573Z,-0.4
2019-03-16T05:05:10.596Z,-0.3
2019-03-16T05:06:00.363Z,-0.3
2019-03-16T05:06:50.743Z,-0.3
2019-03-16T05:07:40.768Z,-0.3
2019-03-16T05:08:30.858Z,-0.3
2019-03-16T05:09:20.881Z,-0.3
2019-03-16T05:10:10.949Z,-0.2
2019-03-16T05:11:01.113Z,-0.1
2019-03-16T05:11:51.054Z,-0.1
2019-03-16T05:12:40.850Z,-0.1
2019-03-16T05:13:31.172Z,-0.1
2019-03-16T05:14:21.223Z,0
2019-03-16T05:15:11.349Z,0
2019-03-16T05:16:01.350Z,0.1
2019-03-16T05:16:51.413Z,0.1
2019-03-16T05:17:41.468Z,0.2
2019-03-16T05:18:31.517Z,0.2
2019-03-16T05:19:21.575Z,0.3
2019-03-16T05:20:11.370Z,0.3
2019-03-16T05:21:01.695Z,0.4
2019-03-16T05:21:51.757Z,0.4
2019-03-16T05:22:41.550Z,0.4
2019-03-16T05:23:31.908Z,0.5
2019-03-16T05:24:21.927Z,0.6
2019-03-16T05:25:11.997Z,0.7
2019-03-16T05:26:01.546Z,0.9
2019-03-16T05:26:52.119Z,1.1
2019-03-16T05:27:41.932Z,1.4
2019-03-16T05:28:32.222Z,1.7
2019-03-16T05:29:22.008Z,2
2019-03-16T05:30:12.445Z,2.4
2019-03-16T05:31:02.402Z,2.8
2019-03-16T05:31:52.892Z,3.1
2019-03-16T05:32:42.530Z,3.4
2019-03-16T05:33:32.575Z,3.7
2019-03-16T05:34:22.427Z,4
2019-03-16T05:35:12.430Z,4.3
2019-03-16T05:36:02.219Z,4.5
2019-03-16T05:36:56.497Z,4.8
2019-03-16T05:37:42.884Z,4.9
2019-03-16T05:38:32.934Z,5.1
2019-03-16T05:39:22.716Z,5.3
2019-03-16T05:40:13.036Z,5.4
2019-03-16T05:41:03.094Z,5.5
2019-03-16T05:41:53.174Z,5.6
2019-03-16T05:42:43.241Z,5.7
2019-03-16T05:43:33.354Z,5.8
2019-03-16T05:44:23.068Z,5.9
2019-03-16T05:45:13.463Z,6
2019-03-16T05:46:03.193Z,6.1
2019-03-16T05:46:53.510Z,6.2
2019-03-16T05:47:43.583Z,6.3
2019-03-16T05:48:33.638Z,6.4
2019-03-16T05:49:23.683Z,6.5
2019-03-16T05:50:13.763Z,6.6
2019-03-16T05:51:03.814Z,6.8
2019-03-16T05:51:53.888Z,6.9
2019-03-16T05:52:43.376Z,7.1
2019-03-16T05:53:34.001Z,7.3
2019-03-16T05:54:24.048Z,7.5
2019-03-16T05:55:14.218Z,7.8
2019-03-16T05:56:04.166Z,8.1
2019-03-16T05:56:54.249Z,8.4
2019-03-16T05:57:44.286Z,8.8
2019-03-16T05:58:33.860Z,9.1
2019-03-16T05:59:24.139Z,9.5
2019-03-16T06:00:14.477Z,9.9
2019-03-16T06:01:04.508Z,10.3
2019-03-16T06:01:54.573Z,10.6
2019-03-16T06:02:44.633Z,11
2019-03-16T06:03:34.707Z,11.4
2019-03-16T06:05:31.630Z,12.4
2019-03-16T06:06:21.679Z,13.1
2019-03-16T06:07:12.130Z,13.6
2019-03-16T06:08:02.355Z,14.1
2019-03-16T06:08:52.420Z,14.5
2019-03-16T06:09:42.207Z,14.9
2019-03-16T06:10:31.710Z,15.1
2019-03-16T06:11:22.320Z,15.3
2019-03-16T06:12:12.392Z,15.4
2019-03-16T06:13:02.707Z,15.6
2019-03-16T06:13:52.484Z,15.6
2019-03-16T06:14:42.820Z,15.6
2019-03-16T06:15:32.603Z,15.6
2019-03-16T06:16:22.944Z,15.6
2019-03-16T06:17:12.722Z,15.6
2019-03-16T06:18:03.057Z,15.6
2019-03-16T06:18:52.839Z,15.6
2019-03-16T06:19:42.905Z,15.6
2019-03-16T06:20:32.950Z,15.6
2019-03-16T06:21:23.301Z,15.6
2019-03-16T06:22:13.077Z,15.6
2019-03-16T06:23:03.416Z,15.6
2019-03-16T06:23:53.485Z,15.6
2019-03-16T06:24:43.529Z,15.5
2019-03-16T06:25:33.672Z,15.5
2019-03-16T06:26:23.103Z,15.4
2019-03-16T06:27:13.426Z,15.4
2019-03-16T06:28:03.771Z,15.3
2019-03-16T06:28:53.821Z,15.3
2019-03-16T06:29:43.896Z,15.4
2019-03-16T06:30:33.933Z,15.5
2019-03-16T06:31:23.518Z,15.8
2019-03-16T06:32:13.786Z,16.1
2019-03-16T06:33:03.841Z,16.4
2019-03-16T06:33:53.895Z,16.9
2019-03-16T06:34:44.231Z,17.4
2019-03-16T06:35:34.293Z,18.1
2019-03-16T06:36:24.423Z,18.8
2019-03-16T06:37:14.150Z,19.5
2019-03-16T06:38:04.476Z,20.3
2019-03-16T06:39:44.042Z,21.9
2019-03-16T06:40:34.088Z,22.8
2019-03-16T06:41:24.441Z,23.6
2019-03-16T06:42:14.755Z,24.5
2019-03-16T06:43:04.845Z,25.3
2019-03-16T06:43:54.602Z,26.1
2019-03-16T06:44:44.758Z,26.8
2019-03-16T06:45:34.440Z,27.5
2019-03-16T06:46:25.060Z,28.1
2019-03-16T06:47:14.565Z,28.6
2019-03-16T06:48:05.168Z,29.1
2019-03-16T06:48:55.285Z,29.5
2019-03-16T06:49:45.005Z,29.9
2019-03-16T06:50:35.350Z,30.3
2019-03-16T06:51:25.410Z,30.6
2019-03-16T06:52:14.907Z,30.8
2019-03-16T06:53:04.984Z,30.9
2019-03-16T06:53:55.037Z,31.1
2019-03-16T06:54:45.654Z,31.3
2019-03-16T06:55:35.452Z,31.6
2019-03-16T06:56:25.763Z,31.9
2019-03-16T06:57:15.547Z,32.4
2019-03-16T06:58:05.604Z,32.9
2019-03-16T06:58:59.013Z,33.5
2019-03-16T06:59:45.999Z,34.1
2019-03-16T07:00:36.060Z,34.7
2019-03-16T07:01:25.829Z,35.3
2019-03-16T07:02:16.169Z,35.8
2019-03-16T07:03:06.222Z,36.4
2019-03-16T07:05:40.262Z,38
2019-03-16T07:06:22.183Z,38.6
2019-03-16T07:07:12.309Z,38.9
2019-03-16T07:08:02.029Z,39.3
2019-03-16T07:08:52.109Z,39.7
2019-03-16T07:09:42.431Z,40.2
2019-03-16T07:10:32.194Z,40.8
2019-03-16T07:11:22.252Z,41.4
2019-03-16T07:12:12.321Z,42
2019-03-16T07:13:02.399Z,42.6
2019-03-16T07:13:52.714Z,43.1
2019-03-16T07:14:42.776Z,43.5
2019-03-16T07:15:32.546Z,43.8
2019-03-16T07:16:22.638Z,43.8
2019-03-16T07:17:12.940Z,43.8
2019-03-16T07:18:02.733Z,43.7
2019-03-16T07:19:00.941Z,43.5
2019-03-16T07:19:42.925Z,43.3
2019-03-16T07:20:33.184Z,43.1
2019-03-16T07:21:23.257Z,42.9
2019-03-16T07:22:13.303Z,42.6
2019-03-16T07:23:03.090Z,42.3
2019-03-16T07:23:53.140Z,41.9
2019-03-16T07:24:43.490Z,41.6
2019-03-16T07:25:33.245Z,41.3
2019-03-16T07:26:23.305Z,41.1
2019-03-16T07:27:27.661Z,40.9
2019-03-16T07:28:03.719Z,40.7
2019-03-16T07:28:53.763Z,40.5
2019-03-16T07:29:43.555Z,40.3
2019-03-16T07:30:37.009Z,40
2019-03-16T07:31:23.975Z,39.8
2019-03-16T07:32:14.015Z,39.6
2019-03-16T07:33:03.543Z,39.4
2019-03-16T07:33:54.105Z,39.3
2019-03-16T07:34:43.905Z,39.2
2019-03-16T07:35:33.975Z,39.1
2019-03-16T07:36:24.294Z,39.1
2019-03-16T07:37:14.085Z,39.1
2019-03-16T07:38:04.407Z,39.2
2019-03-16T07:38:53.935Z,39.3
2019-03-16T07:39:43.698Z,39.3
2019-03-16T07:40:34.665Z,39.4
2019-03-16T07:41:24.373Z,39.5
2019-03-16T07:42:14.692Z,39.8
2019-03-16T07:43:04.772Z,40.3
2019-03-16T07:43:54.819Z,40.9
2019-03-16T07:44:44.607Z,41.6
2019-03-16T07:45:34.936Z,42.3
2019-03-16T07:46:24.719Z,42.9
2019-03-16T07:47:15.059Z,43.3
2019-03-16T07:48:05.206Z,43.6
2019-03-16T07:48:54.896Z,43.8
2019-03-16T07:49:44.978Z,44.1
2019-03-16T07:50:35.296Z,44.6
2019-03-16T07:51:25.353Z,45.2
2019-03-16T07:52:14.864Z,45.9
2019-03-16T07:53:05.196Z,46.5
2019-03-16T07:53:55.519Z,47.1
2019-03-16T07:54:45.589Z,47.7
2019-03-16T07:55:35.659Z,48.4
2019-03-16T07:56:25.511Z,49.1
2019-03-16T07:57:15.543Z,49.6
2019-03-16T07:58:05.338Z,50.1
2019-03-16T07:58:55.603Z,50.4
2019-03-16T07:59:45.682Z,50.8
2019-03-16T08:00:35.721Z,51.1
2019-03-16T08:01:25.786Z,51.3
2019-03-16T08:02:16.126Z,51.4
2019-03-16T08:03:05.898Z,51.5
2019-03-16T08:03:56.275Z,51.7
2019-03-16T08:05:36.399Z,52.1
2019-03-16T08:07:16.205Z,52.8
2019-03-16T08:08:06.263Z,53.3
2019-03-16T08:08:56.316Z,53.9
2019-03-16T08:09:46.383Z,54.6
2019-03-16T08:10:36.415Z,55.2
2019-03-16T08:11:26.778Z,55.9
2019-03-16T08:12:16.850Z,56.6
2019-03-16T08:13:06.649Z,57.3
2019-03-16T08:13:56.661Z,59.1
2019-03-16T08:14:46.443Z,59.9
2019-03-16T08:15:36.777Z,58.6
2019-03-16T08:16:27.122Z,56.7
2019-03-16T08:17:16.915Z,52.6
2019-03-16T08:18:09.309Z,48.4
2019-03-16T08:18:57.047Z,45.9
2019-03-16T08:19:47.452Z,44.6
2019-03-16T08:20:37.415Z,43.6
2019-03-16T08:21:27.473Z,43.1
2019-03-16T08:22:17.253Z,43
2019-03-16T08:23:07.590Z,43.2
2019-03-16T08:23:57.660Z,43.7
2019-03-16T08:24:47.695Z,44.3
2019-03-16T08:25:36.950Z,45.2
2019-03-16T08:26:27.281Z,46.1
2019-03-16T08:27:17.863Z,47.1
2019-03-16T08:28:07.936Z,48.1
2019-03-16T08:29:01.030Z,49.1
2019-03-16T08:29:48.067Z,50.3
2019-03-16T08:30:38.126Z,51.1
2019-03-16T08:31:28.167Z,52.1
2019-03-16T08:32:18.235Z,53
2019-03-16T08:33:08.022Z,53.9
2019-03-16T08:33:58.079Z,54.8
2019-03-16T08:34:47.577Z,55.5
2019-03-16T08:35:38.505Z,56.3
2019-03-16T08:36:28.042Z,58.2
2019-03-16T08:37:18.058Z,58.4
2019-03-16T08:38:08.369Z,56.9
2019-03-16T08:38:58.726Z,55.4
2019-03-16T08:39:48.486Z,52.9
2019-03-16T08:40:38.826Z,50.5
2019-03-16T08:41:28.897Z,48.8
2019-03-16T08:42:19.013Z,47.8
2019-03-16T08:43:08.528Z,47.3
2019-03-16T08:43:59.146Z,47.3
2019-03-16T08:44:49.122Z,47.9
2019-03-16T08:45:38.908Z,48.8
2019-03-16T08:46:28.689Z,49.8
2019-03-16T08:47:19.371Z,50.9
2019-03-16T08:48:23.456Z,52
2019-03-16T08:48:59.138Z,53.4
2019-03-16T08:49:49.191Z,54.1
2019-03-16T08:50:39.533Z,55
2019-03-16T08:51:29.603Z,55.9
2019-03-16T08:52:19.696Z,57.9
2019-03-16T08:53:09.751Z,58.9
2019-03-16T08:53:59.518Z,58.4
2019-03-16T08:54:49.839Z,57.6
2019-03-16T08:55:39.911Z,55.8
2019-03-16T08:56:29.678Z,53.5
2019-03-16T08:57:20.010Z,51.8
2019-03-16T08:58:10.063Z,50.5
2019-03-16T08:58:59.919Z,50.1
2019-03-16T08:59:49.946Z,50.5
2019-03-16T09:00:40.244Z,51.4
2019-03-16T09:01:30.030Z,52.3
2019-03-16T09:02:20.086Z,53.1
2019-03-16T09:03:10.425Z,54
2019-03-16T09:04:00.195Z,54.9
2019-03-16T09:04:50.271Z,56
2019-03-16T09:05:40.387Z,58.2
2019-03-16T09:06:30.399Z,59.4
2019-03-16T09:07:20.787Z,59.6
2019-03-16T09:08:10.842Z,59.4
2019-03-16T09:09:00.555Z,58.1
2019-03-16T09:09:50.338Z,56.3
2019-03-16T09:10:40.667Z,54.6
2019-03-16T09:11:31.016Z,54.3
2019-03-16T09:12:20.868Z,54.9
2019-03-16T09:13:10.865Z,55.7
2019-03-16T09:14:00.915Z,56.2
2019-03-16T09:14:51.262Z,56.4
2019-03-16T09:15:41.035Z,56.3
2019-03-16T09:16:31.145Z,55.9
2019-03-16T09:17:21.429Z,55.4
2019-03-16T09:18:11.212Z,55.2
2019-03-16T09:19:01.546Z,55.1
2019-03-16T09:19:51.064Z,55.3
2019-03-16T09:20:41.668Z,55.4
2019-03-16T09:21:31.727Z,55.5
2019-03-16T09:22:21.784Z,55.4
2019-03-16T09:23:11.841Z,55.3
2019-03-16T09:24:01.624Z,55.3
2019-03-16T09:24:51.769Z,55.3
2019-03-16T09:25:41.739Z,55.3
2019-03-16T09:26:31.810Z,55.4
2019-03-16T09:27:33.192Z,55.5
2019-03-16T09:28:20.515Z,55.5
2019-03-16T09:29:15.410Z,55.5
2019-03-16T09:29:52.307Z,55.4
2019-03-16T09:30:42.097Z,55.4
2019-03-16T09:31:32.440Z,55.4
2019-03-16T09:32:22.487Z,55.4
2019-03-16T09:33:13.112Z,55.4
2019-03-16T09:34:02.342Z,55.4
2019-03-16T09:34:52.395Z,55.4
2019-03-16T09:35:42.725Z,55.4
2019-03-16T09:36:32.782Z,55.4
2019-03-16T09:37:22.834Z,55.4
2019-03-16T09:38:12.651Z,55.3
2019-03-16T09:39:02.965Z,55.4
2019-03-16T09:39:52.759Z,55.5
2019-03-16T09:40:42.867Z,55.8
2019-03-16T09:41:32.866Z,55.9
2019-03-16T09:42:23.007Z,56
2019-03-16T09:43:13.261Z,56.1
2019-03-16T09:44:03.891Z,56.2
2019-03-16T09:44:53.381Z,56.3
2019-03-16T09:45:42.902Z,56.5
2019-03-16T09:46:33.491Z,56.6
2019-03-16T09:47:23.272Z,56.8
2019-03-16T09:48:13.626Z,56.9
2019-03-16T09:49:03.692Z,56.9
2019-03-16T09:49:53.721Z,57
2019-03-16T09:50:43.544Z,57
2019-03-16T09:51:33.288Z,57.1
2019-03-16T09:52:23.728Z,57.1
2019-03-16T09:53:13.988Z,57.3
2019-03-16T09:54:04.041Z,57.6
2019-03-16T09:55:44.153Z,58
2019-03-16T09:56:33.936Z,58.1
2019-03-16T09:57:23.991Z,58.3
2019-03-16T09:58:14.331Z,58.4
2019-03-16T09:59:03.856Z,58.6
2019-03-16T09:59:54.164Z,58.8
2019-03-16T10:00:44.486Z,58.9
2019-03-16T10:01:34.282Z,58.9
2019-03-16T10:02:24.609Z,58.9
2019-03-16T10:03:14.677Z,58.8
2019-03-16T10:04:04.761Z,58.8
2019-03-16T10:06:31.974Z,58.6
2019-03-16T10:07:22.036Z,58.6
2019-03-16T10:08:12.102Z,58.7
2019-03-16T10:09:01.882Z,58.9
2019-03-16T10:09:52.214Z,59
2019-03-16T10:10:42.287Z,59.2
2019-03-16T10:11:32.059Z,59.3
2019-03-16T10:12:22.381Z,59.5
2019-03-16T10:13:12.176Z,59.6
2019-03-16T10:14:02.506Z,59.4
2019-03-16T10:14:52.305Z,59.1
2019-03-16T10:15:42.349Z,59.1
2019-03-16T10:16:32.685Z,59.1
2019-03-16T10:17:22.754Z,59.2
2019-03-16T10:18:12.804Z,59.3
2019-03-16T10:19:02.888Z,59.3
2019-03-16T10:19:52.378Z,59.2
2019-03-16T10:20:42.703Z,59.2
2019-03-16T10:21:32.802Z,59.1
2019-03-16T10:22:23.173Z,59.2
2019-03-16T10:23:12.906Z,59.3
2019-03-16T10:24:02.941Z,59.3
2019-03-16T10:24:53.278Z,59.3
2019-03-16T10:25:43.338Z,59.3
2019-03-16T10:26:33.431Z,59.2
2019-03-16T10:27:23.203Z,59.1
2019-03-16T10:28:13.513Z,58.9
2019-03-16T10:29:03.653Z,58.8
2019-03-16T10:30:43.413Z,58.4
2019-03-16T10:31:33.749Z,58.1
2019-03-16T10:32:23.255Z,57.9
2019-03-16T10:33:13.903Z,57.8
2019-03-16T10:34:03.683Z,57.7
2019-03-16T10:34:53.985Z,57.6
2019-03-16T10:35:44.050Z,57.5
2019-03-16T10:36:33.822Z,57.5
2019-03-16T10:37:24.174Z,57.4
2019-03-16T10:38:14.234Z,57.4
2019-03-16T10:39:04.305Z,57.3
2019-03-16T10:39:54.065Z,57.3
2019-03-16T10:40:44.134Z,57.4
2019-03-16T10:41:33.907Z,57.3
2019-03-16T10:42:24.539Z,57.3
2019-03-16T10:43:14.363Z,57.1
2019-03-16T10:44:04.642Z,56.9
2019-03-16T10:44:54.692Z,56.8
2019-03-16T10:45:44.474Z,56.7
2019-03-16T10:46:34.899Z,56.6
2019-03-16T10:47:24.627Z,56.6
2019-03-16T10:48:14.934Z,56.6
2019-03-16T10:49:05.085Z,56.7
2019-03-16T10:49:54.781Z,56.8
2019-03-16T10:50:45.058Z,56.8
2019-03-16T10:51:35.179Z,56.6
2019-03-16T10:52:24.946Z,56.5
2019-03-16T10:53:15.289Z,56.4
2019-03-16T10:54:05.470Z,56.5
2019-03-16T10:54:55.451Z,56.5
2019-03-16T10:55:45.474Z,56.3
2019-03-16T10:56:35.534Z,56.2
2019-03-16T10:57:25.628Z,56.1
2019-03-16T10:58:15.651Z,56
2019-03-16T10:59:05.424Z,55.9
2019-03-16T10:59:55.506Z,55.9
2019-03-16T11:00:45.831Z,55.8
2019-03-16T11:01:35.898Z,55.8
2019-03-16T11:02:25.954Z,55.7
2019-03-16T11:03:15.730Z,55.7
2019-03-16T11:04:05.519Z,55.8
2019-03-16T11:04:56.136Z,55.8
2019-03-16T11:05:45.906Z,55.8
2019-03-16T11:06:36.269Z,55.7
2019-03-16T11:07:25.475Z,55.4
2019-03-16T11:08:16.376Z,55
2019-03-16T11:09:06.176Z,54.8
2019-03-16T11:09:55.935Z,54.6
2019-03-16T11:10:46.569Z,54.3
2019-03-16T11:11:36.616Z,53.9
2019-03-16T11:12:26.660Z,53.7
2019-03-16T11:13:16.183Z,53.6
2019-03-16T11:14:06.498Z,53.5
2019-03-16T11:14:56.852Z,53.5
2019-03-16T11:15:46.956Z,53.4
2019-03-16T11:16:37.028Z,53.3
2019-03-16T11:17:27.088Z,53.1
2019-03-16T11:18:16.802Z,52.8
2019-03-16T11:19:07.141Z,52.6
2019-03-16T11:19:57.203Z,51.8
2019-03-16T11:20:46.995Z,51
2019-03-16T11:21:37.048Z,50.5
2019-03-16T11:22:27.100Z,50.3
2019-03-16T11:23:17.149Z,50.3
2019-03-16T11:24:07.220Z,50.4
2019-03-16T11:24:57.280Z,50.5
2019-03-16T11:25:47.609Z,50.8
2019-03-16T11:26:37.672Z,50.9
2019-03-16T11:27:27.725Z,51.1
2019-03-16T11:28:17.246Z,51.3
2019-03-16T11:29:11.354Z,51.5
2019-03-16T11:29:57.630Z,51.8
2019-03-16T11:31:38.030Z,52.3
2019-03-16T11:32:28.077Z,52.5